createdAt,value
2023-01-19T00:40:06.859Z,17.40
2023-01-19T00:42:41.372Z,17.20
2023-01-19T00:45:12.826Z,17.20
2023-01-19T00:47:44.148Z,17.77
2023-01-19T00:50:17.635Z,17.50
2023-01-19T00:52:46.775Z,16.70
2023-01-19T00:55:28.181Z,17.10
2023-01-19T00:57:57.242Z,17.47
2023-01-19T01:00:28.963Z,17.23
2023-01-19T01:02:57.694Z,18.13
2023-01-19T01:05:26.454Z,17.97
2023-01-19T01:07:55.346Z,17.30
2023-01-19T01:10:27.834Z,17.20
2023-01-19T01:13:22.383Z,16.97
2023-01-19T01:15:48.254Z,17.27
2023-01-19T01:18:17.325Z,17.60
2023-01-19T01:20:48.804Z,17.57
2023-01-19T01:23:25.813Z,17.33
2023-01-19T01:25:56.563Z,17.67
2023-01-19T01:28:28.202Z,17.67
2023-01-19T01:30:57.705Z,17.77
2023-01-19T01:33:41.355Z,17.20
2023-01-19T01:40:00.266Z,17.57
2023-01-19T01:42:51.307Z,17.30
2023-01-19T01:45:31.136Z,16.73
2023-01-19T01:48:24.688Z,17.10
2023-01-19T01:51:27.452Z,16.90
2023-01-19T01:54:16.464Z,19.50
2023-01-19T01:56:50.097Z,16.57
2023-01-19T01:59:27.030Z,16.80
2023-01-19T02:02:21.079Z,16.93
2023-01-19T02:04:55.347Z,17.20
2023-01-19T02:07:48.648Z,16.60
2023-01-19T02:10:35.317Z,16.70
2023-01-19T02:13:22.658Z,17.00
2023-01-19T02:15:55.976Z,17.17
2023-01-19T02:18:26.482Z,16.30
2023-01-19T02:21:01.869Z,16.60
2023-01-19T02:23:42.901Z,16.77
2023-01-19T02:26:17.933Z,17.23
2023-01-19T02:28:50.589Z,16.87
2023-01-19T02:31:20.080Z,17.13
2023-01-19T02:33:49.835Z,16.63
2023-01-19T02:36:21.813Z,17.70
2023-01-19T02:38:56.321Z,16.87
2023-01-19T02:41:30.495Z,17.20
2023-01-19T02:43:59.993Z,17.03
2023-01-19T02:46:35.702Z,16.93
2023-01-19T02:49:06.598Z,16.50
2023-01-19T02:51:37.056Z,16.50
2023-01-19T02:55:02.759Z,16.53
2023-01-19T02:57:52.486Z,15.83
2023-01-19T03:00:34.561Z,15.73
2023-01-19T03:03:16.662Z,16.33
2023-01-19T03:06:04.767Z,16.30
2023-01-19T03:08:44.159Z,16.10
2023-01-19T03:11:26.352Z,16.90
2023-01-19T03:14:02.437Z,18.50
2023-01-19T03:20:16.212Z,16.70
2023-01-19T03:22:45.803Z,16.20
2023-01-19T03:25:15.488Z,17.63
2023-01-19T03:28:00.443Z,16.90
2023-01-19T03:30:34.896Z,16.03
2023-01-19T03:33:11.434Z,15.80
2023-01-19T03:35:44.797Z,15.50
2023-01-19T03:38:20.371Z,15.90
2023-01-19T03:40:52.415Z,15.50
2023-01-19T03:43:30.002Z,17.90
2023-01-19T03:45:59.043Z,15.97
2023-01-19T03:48:29.495Z,16.10
2023-01-19T03:51:00.391Z,14.83
2023-01-19T03:53:31.668Z,15.73
2023-01-19T03:56:24.974Z,17.23
2023-01-19T03:59:37.112Z,14.70
2023-01-19T04:02:16.134Z,14.70
2023-01-19T04:05:00.565Z,14.90
2023-01-19T04:07:40.461Z,14.90
2023-01-19T04:10:17.629Z,14.23
2023-01-19T04:13:06.353Z,15.30
2023-01-19T05:03:08.826Z,14.47
2023-01-19T05:05:47.160Z,15.40
2023-01-19T05:08:16.145Z,15.20
2023-01-19T05:10:45.289Z,14.97
2023-01-19T05:13:19.433Z,14.40
2023-01-19T06:02:16.764Z,14.70
2023-01-19T06:04:49.322Z,14.30
2023-01-19T06:07:54.671Z,15.07
2023-01-19T06:10:33.438Z,14.90
2023-01-19T06:17:24.573Z,13.87
2023-01-19T06:20:19.942Z,14.40
2023-01-19T06:25:39.594Z,14.87
2023-01-19T06:59:33.863Z,17.10
2023-01-19T07:02:33.939Z,16.40
2023-01-19T07:20:23.635Z,14.43
2023-01-19T07:47:35.301Z,14.60
2023-01-19T07:50:14.332Z,15.17
2023-01-19T07:52:50.798Z,14.97
2023-01-19T07:55:27.809Z,14.70
2023-01-19T09:13:02.801Z,15.60
2023-01-19T09:41:26.193Z,15.07
2023-01-19T09:44:25.352Z,15.40
2023-01-19T09:47:59.650Z,16.00
2023-01-19T09:50:52.738Z,15.30
2023-01-19T09:53:48.677Z,15.97
2023-01-19T10:00:17.496Z,15.40
2023-01-19T10:03:12.119Z,15.73
2023-01-19T10:18:36.126Z,15.07
2023-01-19T10:22:00.491Z,15.70
2023-01-19T11:31:57.990Z,14.70
2023-01-19T12:42:54.320Z,20.03
2023-01-19T12:50:06.390Z,20.80
2023-01-19T13:07:40.694Z,19.33
2023-01-19T14:55:48.798Z,17.07
2023-01-19T14:58:21.377Z,17.50
2023-01-19T15:00:53.119Z,18.13
2023-01-19T15:03:53.330Z,18.03
2023-01-19T15:07:12.484Z,18.63
2023-01-19T17:56:50.460Z,13.80
2023-01-19T18:07:25.241Z,14.70
2023-01-19T18:10:39.763Z,14.20
2023-01-19T18:13:18.860Z,14.30
2023-01-19T19:13:36.182Z,14.57
2023-01-19T19:57:51.992Z,15.00
2023-01-19T20:04:20.156Z,14.30
2023-01-19T20:10:03.603Z,14.80
2023-01-19T20:12:57.514Z,14.20
2023-01-19T20:15:56.764Z,14.20
2023-01-19T20:22:10.801Z,15.03
2023-01-19T20:27:58.616Z,17.43
2023-01-19T20:30:49.434Z,16.80
2023-01-19T20:33:53.747Z,14.90
2023-01-19T20:36:42.602Z,14.80
2023-01-19T20:39:52.191Z,15.00
2023-01-19T20:43:00.311Z,15.20
2023-01-19T20:45:59.336Z,15.13
2023-01-19T20:48:57.228Z,15.50
2023-01-19T20:52:03.275Z,14.70
2023-01-19T20:55:02.818Z,14.90
2023-01-19T21:01:31.739Z,15.80
2023-01-19T21:04:01.341Z,15.13
2023-01-19T21:06:33.567Z,15.90
2023-01-19T21:09:02.416Z,15.27
2023-01-19T21:11:55.010Z,15.00
2023-01-19T21:14:40.540Z,15.33
2023-01-19T21:17:37.072Z,15.07
2023-01-19T21:20:26.497Z,15.50
2023-01-19T21:23:07.526Z,15.33
2023-01-19T21:26:04.392Z,15.23
2023-01-19T21:29:01.275Z,15.20
2023-01-19T21:31:52.705Z,14.73
2023-01-19T21:34:55.555Z,14.83
2023-01-19T21:37:45.669Z,14.60
2023-01-19T21:40:55.811Z,15.00
2023-01-19T21:43:58.623Z,15.20
2023-01-19T21:46:58.442Z,14.80
2023-01-19T21:54:29.398Z,15.47
2023-01-19T22:01:20.900Z,17.47
2023-01-19T22:04:50.040Z,15.40
2023-01-19T22:07:57.555Z,15.30
2023-01-19T22:15:33.840Z,15.50
2023-01-19T22:21:33.208Z,15.53
2023-01-19T22:25:00.631Z,15.70
2023-01-19T22:27:50.249Z,16.07
2023-01-19T22:30:45.396Z,15.53
2023-01-19T22:33:39.272Z,16.00
2023-01-19T22:36:25.379Z,15.50
2023-01-19T22:39:35.064Z,16.10
2023-01-19T22:42:22.615Z,16.03
2023-01-19T22:45:07.117Z,16.53
2023-01-19T22:48:00.998Z,16.00
2023-01-19T22:50:51.433Z,16.00
2023-01-19T22:54:02.394Z,16.30
2023-01-19T22:59:55.065Z,16.17
2023-01-19T23:02:54.002Z,15.87
2023-01-19T23:05:56.152Z,16.07
2023-01-19T23:08:38.496Z,16.00
2023-01-19T23:11:30.310Z,16.10
2023-01-19T23:14:41.457Z,16.57
2023-01-19T23:17:34.909Z,15.70
2023-01-19T23:20:37.900Z,15.30
2023-01-19T23:23:33.127Z,14.87
2023-01-19T23:26:35.421Z,15.97
2023-01-19T23:29:39.111Z,15.20
2023-01-19T23:33:02.930Z,15.50
2023-01-19T23:36:20.281Z,19.40
2023-01-19T23:39:39.106Z,15.50
2023-01-19T23:42:33.198Z,15.50
2023-01-19T23:45:37.433Z,15.40
2023-01-19T23:48:30.415Z,15.03
2023-01-19T23:51:34.997Z,15.50
2023-01-19T23:54:28.899Z,14.80
